createdAt,value
2018-03-27T00:00:37.017Z,0
2018-03-27T00:01:46.814Z,0
2018-03-27T00:02:56.359Z,0
2018-03-27T00:04:06.418Z,0
2018-03-27T00:05:16.546Z,0
2018-03-27T00:06:26.679Z,0
2018-03-27T00:07:36.750Z,0
2018-03-27T00:08:46.814Z,0
2018-03-27T00:09:56.665Z,0
2018-03-27T00:11:06.734Z,0
2018-03-27T00:12:16.534Z,0
2018-03-27T00:13:26.586Z,0
2018-03-27T00:14:36.658Z,0
2018-03-27T00:15:46.484Z,0
2018-03-27T00:16:56.278Z,0
2018-03-27T00:18:05.807Z,0
2018-03-27T00:19:15.620Z,0
2018-03-27T00:20:25.439Z,0
2018-03-27T00:21:35.503Z,0
2018-03-27T00:22:45.556Z,0
2018-03-27T00:23:55.351Z,0
2018-03-27T00:25:05.436Z,0
2018-03-27T00:26:14.971Z,0
2018-03-27T00:27:25.030Z,0
2018-03-27T00:28:34.835Z,0
2018-03-27T00:29:44.893Z,0
2018-03-27T00:30:54.687Z,0
2018-03-27T00:32:04.830Z,0
2018-03-27T00:33:14.626Z,0
2018-03-27T00:34:24.167Z,0
2018-03-27T00:35:34.234Z,0
2018-03-27T00:36:44.351Z,0
2018-03-27T00:37:54.161Z,0
2018-03-27T00:39:04.018Z,0
2018-03-27T00:40:13.814Z,0
2018-03-27T00:41:23.695Z,0
2018-03-27T00:42:33.501Z,0
2018-03-27T00:43:43.328Z,0
2018-03-27T00:44:53.384Z,0
2018-03-27T00:46:03.445Z,0
2018-03-27T00:47:13.518Z,0
2018-03-27T00:48:23.572Z,0
2018-03-27T00:49:33.370Z,0
2018-03-27T00:50:43.169Z,0
2018-03-27T00:51:52.990Z,0
2018-03-27T00:53:03.052Z,0
2018-03-27T00:54:13.186Z,0
2018-03-27T00:55:23.260Z,0
2018-03-27T00:56:33.423Z,0
2018-03-27T00:57:43.483Z,0
2018-03-27T00:58:53.537Z,0
2018-03-27T01:00:03.090Z,0
2018-03-27T01:01:13.163Z,0
2018-03-27T01:02:23.280Z,0
2018-03-27T01:03:33.095Z,0
2018-03-27T01:04:43.168Z,0
2018-03-27T01:05:53.235Z,0
2018-03-27T01:07:03.327Z,0
2018-03-27T01:08:13.511Z,0
2018-03-27T01:09:23.314Z,0
2018-03-27T01:10:33.388Z,0
2018-03-27T01:11:43.176Z,0
2018-03-27T01:12:53.228Z,0
2018-03-27T01:14:03.033Z,0
2018-03-27T01:15:13.094Z,0
2018-03-27T01:16:23.167Z,0
2018-03-27T01:17:33.246Z,0
2018-03-27T01:18:43.310Z,0
2018-03-27T01:19:53.432Z,0
2018-03-27T01:21:03.213Z,0
2018-03-27T01:22:13.279Z,0
2018-03-27T01:23:22.813Z,0
2018-03-27T01:24:32.358Z,0
2018-03-27T01:25:42.437Z,0
2018-03-27T01:26:52.244Z,0
2018-03-27T01:28:02.302Z,0
2018-03-27T01:29:12.354Z,0
2018-03-27T01:30:22.433Z,0
2018-03-27T01:31:31.968Z,0
2018-03-27T01:32:41.760Z,0
2018-03-27T01:33:51.839Z,0
2018-03-27T01:35:01.385Z,0
2018-03-27T01:36:11.449Z,0
2018-03-27T01:37:21.588Z,0
2018-03-27T01:38:31.401Z,0
2018-03-27T01:39:41.474Z,0
2018-03-27T01:40:51.270Z,0
2018-03-27T01:42:01.085Z,0
2018-03-27T01:43:10.887Z,0
2018-03-27T01:44:20.424Z,0
2018-03-27T01:45:30.505Z,0
2018-03-27T01:46:40.034Z,0
2018-03-27T01:47:50.108Z,0
2018-03-27T01:48:59.921Z,0
2018-03-27T01:50:09.457Z,0
2018-03-27T01:51:19.535Z,0
2018-03-27T01:52:29.585Z,0
2018-03-27T01:53:39.658Z,0
2018-03-27T01:54:48.921Z,0
2018-03-27T01:55:58.715Z,0
2018-03-27T01:57:08.522Z,0
2018-03-27T01:58:18.325Z,0
2018-03-27T01:59:28.383Z,0
2018-03-27T02:00:37.923Z,0
2018-03-27T02:01:47.724Z,0
2018-03-27T02:02:57.503Z,0
2018-03-27T02:04:07.057Z,0
2018-03-27T02:05:17.256Z,0
2018-03-27T02:06:27.368Z,0
2018-03-27T02:07:37.164Z,0
2018-03-27T02:08:47.222Z,0
2018-03-27T02:09:57.281Z,0
2018-03-27T02:11:07.356Z,0
2018-03-27T02:12:17.423Z,0
2018-03-27T02:13:27.219Z,0
2018-03-27T02:14:37.286Z,0
2018-03-27T02:15:47.338Z,0
2018-03-27T02:16:57.411Z,0
2018-03-27T02:18:07.479Z,0
2018-03-27T02:19:17.278Z,0
2018-03-27T02:20:27.098Z,0
2018-03-27T02:21:37.176Z,0
2018-03-27T02:22:46.980Z,0
2018-03-27T02:23:56.513Z,0
2018-03-27T02:25:06.060Z,0
2018-03-27T02:26:16.144Z,0
2018-03-27T02:27:26.217Z,0
2018-03-27T02:28:36.271Z,0
2018-03-27T02:29:46.388Z,0
2018-03-27T02:30:56.479Z,0
2018-03-27T02:32:06.565Z,0
2018-03-27T02:33:16.658Z,0
2018-03-27T02:34:26.741Z,0
2018-03-27T02:35:36.903Z,0
2018-03-27T02:36:46.708Z,0
2018-03-27T02:37:56.504Z,0
2018-03-27T02:39:06.590Z,0
2018-03-27T02:40:16.672Z,0
2018-03-27T02:41:26.471Z,0
2018-03-27T02:42:36.278Z,0
2018-03-27T02:43:46.102Z,0
2018-03-27T02:44:55.946Z,0
2018-03-27T02:46:06.033Z,0
2018-03-27T02:47:15.922Z,0
2018-03-27T02:48:26.007Z,0
2018-03-27T02:49:35.814Z,0
2018-03-27T02:50:45.881Z,0
2018-03-27T02:51:55.179Z,0
2018-03-27T02:53:04.987Z,0
2018-03-27T02:54:15.067Z,0
2018-03-27T02:55:25.170Z,0
2018-03-27T02:56:34.988Z,0
2018-03-27T02:57:45.147Z,0
2018-03-27T02:58:55.267Z,0
2018-03-27T03:00:05.328Z,0
2018-03-27T03:01:15.400Z,0
2018-03-27T03:02:25.500Z,0
2018-03-27T03:03:35.595Z,0
2018-03-27T03:04:45.470Z,0
2018-03-27T03:05:55.289Z,0
2018-03-27T03:37:46.363Z,0
2018-03-27T03:38:56.412Z,0
2018-03-27T03:40:05.713Z,0
2018-03-27T03:41:15.771Z,0
2018-03-27T03:42:25.820Z,0
2018-03-27T03:43:35.923Z,0
2018-03-27T03:44:45.450Z,0
2018-03-27T03:45:55.531Z,0
2018-03-27T03:47:05.068Z,0
2018-03-27T03:48:14.866Z,0
2018-03-27T03:49:24.660Z,0
2018-03-27T03:50:34.460Z,0
2018-03-27T03:51:44.516Z,0
2018-03-27T03:52:54.301Z,0
2018-03-27T03:54:04.366Z,0
2018-03-27T03:55:13.938Z,0
2018-03-27T03:56:23.710Z,0
2018-03-27T03:57:33.780Z,0
2018-03-27T03:58:43.847Z,0
2018-03-27T03:59:53.677Z,0
2018-03-27T04:01:03.476Z,0
2018-03-27T04:02:13.532Z,0
2018-03-27T04:03:23.335Z,0
2018-03-27T04:04:33.411Z,0
2018-03-27T04:05:43.461Z,0
2018-03-27T04:06:53.566Z,0
2018-03-27T04:08:02.836Z,0
2018-03-27T04:09:12.652Z,0
2018-03-27T04:10:22.445Z,0
2018-03-27T04:11:32.601Z,0
2018-03-27T04:12:42.723Z,0
2018-03-27T04:13:52.795Z,0
2018-03-27T04:15:02.861Z,0
2018-03-27T04:16:12.654Z,0
2018-03-27T04:17:22.453Z,0
2018-03-27T04:18:32.309Z,0
2018-03-27T04:19:42.362Z,0
2018-03-27T04:20:52.159Z,0
2018-03-27T04:22:02.206Z,0
2018-03-27T04:23:11.997Z,0
2018-03-27T04:24:22.045Z,0
2018-03-27T04:25:31.900Z,0
2018-03-27T04:26:41.714Z,0
2018-03-27T04:27:51.766Z,0
2018-03-27T04:29:01.833Z,0
2018-03-27T04:30:11.641Z,0
2018-03-27T04:31:21.716Z,0
2018-03-27T04:32:31.508Z,0
2018-03-27T04:33:41.574Z,0
2018-03-27T04:34:51.637Z,0
2018-03-27T04:36:01.184Z,0
2018-03-27T04:37:11.264Z,0
2018-03-27T04:38:20.822Z,0
2018-03-27T04:39:30.873Z,0
2018-03-27T04:40:40.760Z,0
2018-03-27T04:41:50.921Z,0
2018-03-27T04:43:01.008Z,0
2018-03-27T04:44:11.069Z,0
2018-03-27T04:45:21.193Z,0
2018-03-27T04:46:31.280Z,0
2018-03-27T04:47:41.360Z,0
2018-03-27T04:48:50.892Z,0
2018-03-27T04:50:00.433Z,0
2018-03-27T04:51:10.234Z,0
2018-03-27T04:52:20.029Z,0
2018-03-27T04:53:30.093Z,0
2018-03-27T04:54:39.630Z,0
2018-03-27T04:55:49.427Z,0
2018-03-27T04:56:59.239Z,0
2018-03-27T04:58:08.769Z,0
2018-03-27T04:59:18.633Z,0
2018-03-27T05:00:28.687Z,5
2018-03-27T05:01:38.492Z,5
2018-03-27T05:02:48.548Z,5
2018-03-27T05:03:58.606Z,5
2018-03-27T05:05:08.396Z,5
2018-03-27T05:06:17.946Z,5
2018-03-27T05:07:27.485Z,5
2018-03-27T05:08:37.568Z,5
2018-03-27T05:09:47.640Z,5
2018-03-27T05:10:57.442Z,5
2018-03-27T05:12:07.012Z,5
2018-03-27T05:13:16.596Z,5
2018-03-27T05:14:26.371Z,5
2018-03-27T05:15:36.174Z,10
2018-03-27T05:16:46.238Z,10
2018-03-27T05:17:56.312Z,10
2018-03-27T05:19:06.375Z,10
2018-03-27T05:20:16.436Z,10
2018-03-27T05:21:26.526Z,10
2018-03-27T05:22:36.598Z,10
2018-03-27T05:23:46.388Z,15
2018-03-27T05:24:56.456Z,15
2018-03-27T05:26:06.519Z,15
2018-03-27T05:27:16.598Z,15
2018-03-27T05:28:26.668Z,15
2018-03-27T05:29:36.732Z,20
2018-03-27T05:30:46.800Z,20
2018-03-27T05:31:56.855Z,20
2018-03-27T05:33:06.898Z,20
2018-03-27T05:34:17.032Z,20
2018-03-27T05:35:27.102Z,20
2018-03-27T05:36:37.190Z,20
2018-03-27T05:37:46.730Z,20
2018-03-27T05:38:56.811Z,20
2018-03-27T05:40:06.874Z,20
2018-03-27T05:41:16.952Z,20
2018-03-27T05:42:26.742Z,20
2018-03-27T05:43:36.525Z,20
2018-03-27T05:44:46.330Z,20
2018-03-27T05:45:56.158Z,20
2018-03-27T05:47:05.740Z,20
2018-03-27T05:48:15.565Z,20
2018-03-27T05:49:25.356Z,20
2018-03-27T05:50:35.422Z,20
2018-03-27T05:51:45.606Z,20
2018-03-27T05:52:55.693Z,25
2018-03-27T05:54:05.500Z,25
2018-03-27T05:55:15.571Z,25
2018-03-27T05:56:25.633Z,25
2018-03-27T05:57:35.177Z,25
2018-03-27T05:58:44.721Z,25
2018-03-27T05:59:54.780Z,25
2018-03-27T06:01:04.844Z,30
2018-03-27T06:02:14.911Z,30
2018-03-27T06:03:24.719Z,30
2018-03-27T06:04:34.781Z,30
2018-03-27T06:05:44.839Z,30
2018-03-27T06:06:54.630Z,30
2018-03-27T06:08:04.442Z,30
2018-03-27T06:09:14.511Z,30
2018-03-27T06:10:24.586Z,35
2018-03-27T06:11:34.376Z,35
2018-03-27T06:12:43.924Z,35
2018-03-27T06:13:53.729Z,35
2018-03-27T06:15:03.821Z,35
2018-03-27T06:16:13.867Z,35
2018-03-27T06:17:23.402Z,35
2018-03-27T06:18:33.216Z,40
2018-03-27T06:19:43.289Z,40
2018-03-27T06:20:53.414Z,40
2018-03-27T06:22:03.227Z,40
2018-03-27T06:23:13.049Z,35
2018-03-27T06:24:23.120Z,35
2018-03-27T06:25:32.931Z,35
2018-03-27T06:26:42.785Z,35
2018-03-27T06:27:52.672Z,35
2018-03-27T06:29:02.475Z,35
2018-03-27T06:30:12.268Z,35
2018-03-27T06:31:22.327Z,40
2018-03-27T06:32:32.430Z,40
2018-03-27T06:33:42.502Z,40
2018-03-27T06:34:52.321Z,40
2018-03-27T06:36:02.383Z,40
2018-03-27T06:37:12.465Z,40
2018-03-27T06:38:22.249Z,40
2018-03-27T06:39:32.332Z,40
2018-03-27T06:40:42.214Z,40
2018-03-27T06:41:52.286Z,40
2018-03-27T06:43:02.344Z,40
2018-03-27T06:44:12.450Z,40
2018-03-27T06:45:22.261Z,40
2018-03-27T06:46:32.321Z,40
2018-03-27T06:47:41.927Z,40
2018-03-27T06:48:51.703Z,40
2018-03-27T06:50:01.499Z,40
2018-03-27T06:51:11.561Z,40
2018-03-27T06:52:21.619Z,40
2018-03-27T06:53:31.419Z,40
2018-03-27T06:54:41.216Z,40
2018-03-27T06:55:50.489Z,35
2018-03-27T06:57:00.285Z,35
2018-03-27T06:58:10.343Z,35
2018-03-27T06:59:20.423Z,35
2018-03-27T07:00:30.489Z,40
2018-03-27T07:01:40.662Z,40
2018-03-27T07:02:50.818Z,45
2018-03-27T07:04:00.962Z,40
2018-03-27T07:05:11.171Z,45
2018-03-27T07:06:21.280Z,45
2018-03-27T07:07:30.896Z,45
2018-03-27T07:08:40.713Z,45
2018-03-27T07:09:50.545Z,45
2018-03-27T07:11:00.703Z,45
2018-03-27T07:12:10.810Z,45
2018-03-27T07:13:20.990Z,50
2018-03-27T07:14:31.201Z,50
2018-03-27T07:15:41.320Z,50
2018-03-27T07:16:51.442Z,55
2018-03-27T07:18:01.546Z,60
2018-03-27T07:19:11.468Z,60
2018-03-27T07:20:21.681Z,65
2018-03-27T07:21:31.746Z,70
2018-03-27T07:22:41.823Z,75
2018-03-27T07:23:51.870Z,75
2018-03-27T07:25:01.947Z,75
2018-03-27T07:26:12.024Z,80
2018-03-27T07:27:22.092Z,80
2018-03-27T07:28:31.914Z,80
2018-03-27T07:29:41.756Z,80
2018-03-27T07:30:51.626Z,80
2018-03-27T07:32:01.696Z,80
2018-03-27T07:33:11.788Z,80
2018-03-27T07:34:21.587Z,75
2018-03-27T07:35:31.408Z,70
2018-03-27T07:36:41.206Z,60
2018-03-27T07:37:51.009Z,60
2018-03-27T07:39:00.992Z,60
2018-03-27T07:40:11.074Z,65
2018-03-27T07:41:21.159Z,65
2018-03-27T07:42:31.243Z,70
2018-03-27T07:43:41.320Z,70
2018-03-27T07:44:51.402Z,75
2018-03-27T07:46:01.480Z,75
2018-03-27T07:47:11.544Z,80
2018-03-27T07:48:21.680Z,80
2018-03-27T07:49:31.873Z,80
2018-03-27T07:50:41.958Z,80
2018-03-27T07:51:52.111Z,85
2018-03-27T07:53:02.485Z,85
2018-03-27T07:54:12.590Z,90
2018-03-27T07:55:22.876Z,85
2018-03-27T07:56:32.700Z,80
2018-03-27T07:57:42.772Z,80
2018-03-27T07:58:53.133Z,80
2018-03-27T08:00:03.266Z,80
2018-03-27T08:01:13.352Z,90
2018-03-27T08:02:23.187Z,95
2018-03-27T08:03:33.125Z,100
2018-03-27T08:04:43.221Z,100
2018-03-27T08:05:53.314Z,100
2018-03-27T08:07:03.402Z,90
2018-03-27T08:08:13.514Z,80
2018-03-27T08:09:23.591Z,80
2018-03-27T08:10:33.659Z,80
2018-03-27T08:11:43.487Z,85
2018-03-27T08:12:53.563Z,90
2018-03-27T08:14:03.645Z,100
2018-03-27T08:15:13.728Z,105
2018-03-27T08:16:23.837Z,105
2018-03-27T08:17:33.666Z,105
2018-03-27T08:18:43.876Z,110
2018-03-27T08:19:53.907Z,115
2018-03-27T08:21:03.995Z,120
2018-03-27T08:22:14.333Z,130
2018-03-27T08:23:24.435Z,135
2018-03-27T08:24:35.041Z,145
2018-03-27T08:25:45.108Z,150
2018-03-27T08:26:55.169Z,165
2018-03-27T08:28:05.607Z,175
2018-03-27T08:29:15.890Z,180
2018-03-27T08:30:26.046Z,175
2018-03-27T08:31:36.070Z,165
2018-03-27T08:32:46.192Z,150
2018-03-27T08:33:56.268Z,145
2018-03-27T08:35:06.718Z,145
2018-03-27T08:36:17.239Z,130
2018-03-27T08:37:27.342Z,130
2018-03-27T08:43:55.771Z,145
2018-03-27T08:45:05.597Z,150
2018-03-27T08:46:15.693Z,155
2018-03-27T08:47:25.770Z,155
2018-03-27T08:48:35.590Z,160
2018-03-27T08:49:45.723Z,170
2018-03-27T08:50:55.518Z,180
2018-03-27T08:52:05.359Z,190
2018-03-27T08:53:15.451Z,195
2018-03-27T08:54:25.526Z,190
2018-03-27T08:55:35.675Z,190
2018-03-27T08:56:45.241Z,195
2018-03-27T08:57:55.071Z,200
2018-03-27T08:59:05.160Z,205
2018-03-27T09:00:14.972Z,210
2018-03-27T09:01:25.040Z,205
2018-03-27T09:02:35.123Z,205
2018-03-27T09:03:45.042Z,195
2018-03-27T09:04:55.176Z,190
2018-03-27T09:06:05.008Z,190
2018-03-27T09:07:15.145Z,185
2018-03-27T09:08:25.218Z,190
2018-03-27T09:09:35.298Z,185
2018-03-27T09:10:45.120Z,170
2018-03-27T09:11:55.208Z,150
2018-03-27T09:13:05.041Z,145
2018-03-27T09:14:14.624Z,150
2018-03-27T09:15:23.946Z,150
2018-03-27T09:16:34.041Z,150
2018-03-27T09:17:43.590Z,160
2018-03-27T09:18:53.403Z,170
2018-03-27T09:20:02.970Z,180
2018-03-27T09:21:12.803Z,185
2018-03-27T09:22:23.171Z,190
2018-03-27T09:23:33.028Z,205
2018-03-27T09:24:43.106Z,205
2018-03-27T09:25:53.188Z,195
2018-03-27T09:27:03.278Z,180
2018-03-27T09:28:13.091Z,175
2018-03-27T09:29:23.225Z,180
2018-03-27T09:30:33.298Z,185
2018-03-27T09:31:43.378Z,195
2018-03-27T09:32:53.441Z,200
2018-03-27T09:34:03.272Z,205
2018-03-27T09:35:13.096Z,215
2018-03-27T09:36:22.961Z,225
2018-03-27T09:37:33.044Z,235
2018-03-27T09:38:43.119Z,240
2018-03-27T09:39:52.948Z,240
2018-03-27T09:41:03.035Z,260
2018-03-27T09:42:12.596Z,270
2018-03-27T09:43:22.656Z,270
2018-03-27T09:44:32.245Z,270
2018-03-27T09:45:42.485Z,275
2018-03-27T09:46:52.318Z,270
2018-03-27T09:48:02.483Z,260
2018-03-27T09:49:12.638Z,235
2018-03-27T09:50:22.755Z,215
2018-03-27T09:51:32.829Z,200
2018-03-27T09:52:42.647Z,200
2018-03-27T09:53:52.475Z,195
2018-03-27T09:55:02.292Z,185
2018-03-27T09:56:12.359Z,185
2018-03-27T09:57:21.900Z,185
2018-03-27T09:58:32.111Z,200
2018-03-27T09:59:41.926Z,220
2018-03-27T10:00:51.744Z,220
2018-03-27T10:02:01.579Z,230
2018-03-27T10:03:11.695Z,235
2018-03-27T10:04:21.243Z,240
2018-03-27T10:05:31.336Z,235
2018-03-27T10:06:41.155Z,235
2018-03-27T10:07:50.980Z,235
2018-03-27T10:09:00.927Z,230
2018-03-27T10:10:11.007Z,225
2018-03-27T10:11:20.345Z,230
2018-03-27T10:12:30.447Z,235
2018-03-27T10:13:40.273Z,290
2018-03-27T10:14:50.094Z,280
2018-03-27T10:16:00.053Z,230
2018-03-27T10:17:09.872Z,205
2018-03-27T10:18:19.699Z,190
2018-03-27T10:19:29.786Z,180
2018-03-27T10:20:39.614Z,170
2018-03-27T10:21:49.171Z,170
2018-03-27T10:22:58.779Z,170
2018-03-27T10:24:08.864Z,175
2018-03-27T10:25:18.953Z,185
2018-03-27T10:26:28.535Z,190
2018-03-27T10:27:38.345Z,195
2018-03-27T10:28:48.460Z,195
2018-03-27T10:29:58.271Z,200
2018-03-27T10:31:08.361Z,205
2018-03-27T10:32:18.431Z,215
2018-03-27T10:33:27.992Z,230
2018-03-27T10:34:38.249Z,240
2018-03-27T10:35:48.333Z,270
2018-03-27T10:36:58.424Z,250
2018-03-27T10:38:08.516Z,255
2018-03-27T10:39:18.614Z,270
2018-03-27T10:40:28.733Z,315
2018-03-27T10:41:38.540Z,335
2018-03-27T10:42:48.622Z,315
2018-03-27T10:43:58.702Z,300
2018-03-27T10:45:08.524Z,290
2018-03-27T10:46:18.372Z,335
2018-03-27T10:47:28.485Z,330
2018-03-27T10:48:38.315Z,325
2018-03-27T10:49:48.407Z,280
2018-03-27T10:50:58.161Z,285
2018-03-27T10:52:08.033Z,290
2018-03-27T10:53:17.932Z,305
2018-03-27T10:54:27.749Z,305
2018-03-27T10:55:37.851Z,305
2018-03-27T10:56:47.663Z,305
2018-03-27T10:57:57.491Z,300
2018-03-27T10:59:07.308Z,280
2018-03-27T11:00:17.139Z,285
2018-03-27T11:01:27.229Z,270
2018-03-27T11:02:37.064Z,280
2018-03-27T11:03:46.645Z,265
2018-03-27T11:04:56.517Z,265
2018-03-27T11:06:06.331Z,230
2018-03-27T11:07:16.131Z,210
2018-03-27T11:08:26.251Z,195
2018-03-27T11:09:35.793Z,190
2018-03-27T11:10:45.622Z,185
2018-03-27T11:11:55.775Z,170
2018-03-27T11:13:05.580Z,160
2018-03-27T11:14:15.385Z,165
2018-03-27T11:15:25.193Z,175
2018-03-27T11:16:34.998Z,190
2018-03-27T11:17:45.129Z,205
2018-03-27T11:18:54.945Z,220
2018-03-27T11:20:05.045Z,235
2018-03-27T11:21:15.131Z,250
2018-03-27T11:22:25.207Z,255
2018-03-27T11:23:35.293Z,275
2018-03-27T11:24:45.381Z,280
2018-03-27T11:25:54.922Z,270
2018-03-27T11:27:04.757Z,255
2018-03-27T11:28:14.589Z,255
2018-03-27T11:29:24.917Z,265
2018-03-27T11:30:34.922Z,250
2018-03-27T11:31:45.022Z,235
2018-03-27T11:32:54.839Z,225
2018-03-27T11:34:04.665Z,220
2018-03-27T11:35:14.484Z,230
2018-03-27T11:36:24.569Z,245
2018-03-27T11:37:34.393Z,215
2018-03-27T11:38:44.257Z,215
2018-03-27T11:39:54.348Z,210
2018-03-27T11:41:04.445Z,215
2018-03-27T11:42:14.769Z,215
2018-03-27T11:43:24.882Z,220
2018-03-27T11:44:34.711Z,215
2018-03-27T11:45:44.824Z,215
2018-03-27T11:46:54.702Z,215
2018-03-27T11:48:04.793Z,215
2018-03-27T11:49:14.695Z,220
2018-03-27T11:50:24.519Z,225
2018-03-27T11:51:34.611Z,230
2018-03-27T11:52:44.443Z,235
2018-03-27T11:53:54.529Z,235
2018-03-27T11:55:04.357Z,235
2018-03-27T11:56:14.188Z,230
2018-03-27T11:57:24.027Z,225
2018-03-27T11:58:34.108Z,215
2018-03-27T11:59:43.947Z,210
2018-03-27T12:00:54.034Z,205
2018-03-27T12:02:03.579Z,210
2018-03-27T12:03:13.654Z,215
2018-03-27T12:04:23.730Z,220
2018-03-27T12:05:33.562Z,220
2018-03-27T12:06:42.856Z,215
2018-03-27T12:07:52.672Z,200
2018-03-27T12:09:02.485Z,185
2018-03-27T12:10:12.342Z,175
2018-03-27T12:11:22.437Z,170
2018-03-27T12:12:32.525Z,175
2018-03-27T12:13:42.340Z,180
2018-03-27T12:14:51.623Z,190
2018-03-27T12:16:02.005Z,195
2018-03-27T12:17:11.551Z,205
2018-03-27T12:18:21.094Z,210
2018-03-27T12:19:30.915Z,220
2018-03-27T12:20:40.726Z,220
2018-03-27T12:21:50.864Z,225
2018-03-27T12:23:00.411Z,230
2018-03-27T12:24:10.287Z,230
2018-03-27T12:25:20.137Z,235
2018-03-27T12:26:30.222Z,240
2018-03-27T12:27:39.840Z,265
2018-03-27T12:28:49.387Z,240
2018-03-27T12:29:59.501Z,240
2018-03-27T12:31:09.305Z,225
2018-03-27T12:32:19.113Z,215
2018-03-27T12:33:29.187Z,220
2018-03-27T12:34:39.004Z,250
2018-03-27T12:35:48.814Z,255
2018-03-27T12:36:58.463Z,240
2018-03-27T12:38:08.588Z,255
2018-03-27T12:39:18.457Z,250
2018-03-27T12:40:28.017Z,250
2018-03-27T12:41:37.854Z,250
2018-03-27T12:42:47.931Z,240
2018-03-27T12:43:58.025Z,230
2018-03-27T12:45:07.856Z,235
2018-03-27T12:46:17.682Z,230
2018-03-27T12:47:27.516Z,235
2018-03-27T12:48:37.597Z,250
2018-03-27T12:49:47.168Z,235
2018-03-27T12:50:57.022Z,235
2018-03-27T12:52:07.087Z,235
2018-03-27T12:53:17.356Z,230
2018-03-27T12:54:27.454Z,235
2018-03-27T12:55:37.274Z,235
2018-03-27T12:56:46.825Z,235
2018-03-27T12:57:56.141Z,230
2018-03-27T12:59:06.009Z,185
2018-03-27T13:00:16.151Z,200
2018-03-27T13:01:25.982Z,220
2018-03-27T13:02:36.105Z,185
2018-03-27T13:03:45.918Z,185
2018-03-27T13:04:55.996Z,175
2018-03-27T13:06:06.078Z,180
2018-03-27T13:07:16.163Z,215
2018-03-27T13:08:26.057Z,205
2018-03-27T13:09:36.162Z,175
2018-03-27T13:10:45.757Z,175
2018-03-27T13:11:55.435Z,175
2018-03-27T13:13:05.262Z,220
2018-03-27T13:14:15.138Z,210
2018-03-27T13:15:25.001Z,170
2018-03-27T13:16:34.802Z,175
2018-03-27T13:17:44.688Z,185
2018-03-27T13:18:54.870Z,180
2018-03-27T13:20:04.174Z,190
2018-03-27T13:21:14.004Z,185
2018-03-27T13:22:23.850Z,185
2018-03-27T13:23:34.131Z,190
2018-03-27T13:24:43.998Z,245
2018-03-27T13:25:53.849Z,250
2018-03-27T13:27:03.978Z,240
2018-03-27T13:28:14.051Z,235
2018-03-27T13:29:24.143Z,190
2018-03-27T13:30:34.243Z,180
2018-03-27T13:31:44.341Z,180
2018-03-27T13:32:54.410Z,180
2018-03-27T13:34:04.484Z,185
2018-03-27T13:35:14.347Z,210
2018-03-27T13:36:24.167Z,195
2018-03-27T13:37:33.528Z,210
2018-03-27T13:38:43.625Z,165
2018-03-27T13:39:53.716Z,155
2018-03-27T13:41:05.090Z,150
2018-03-27T13:42:15.193Z,155
2018-03-27T13:43:25.064Z,145
2018-03-27T13:44:35.176Z,150
2018-03-27T13:45:47.507Z,130
2018-03-27T13:47:02.511Z,120
2018-03-27T13:48:13.807Z,115
2018-03-27T13:49:27.034Z,110
2018-03-27T13:50:40.138Z,105
2018-03-27T13:51:51.869Z,100
2018-03-27T13:53:02.053Z,95
2018-03-27T13:54:12.076Z,85
2018-03-27T13:55:22.228Z,80
2018-03-27T13:56:32.057Z,80
2018-03-27T13:57:41.893Z,80
2018-03-27T13:58:51.716Z,75
2018-03-27T14:00:01.570Z,75
2018-03-27T14:01:11.709Z,75
2018-03-27T14:02:21.793Z,70
2018-03-27T14:03:31.607Z,70
2018-03-27T14:04:41.161Z,70
2018-03-27T14:05:51.002Z,70
2018-03-27T14:07:01.079Z,70
2018-03-27T14:08:10.648Z,70
2018-03-27T14:09:20.513Z,65
2018-03-27T14:10:30.314Z,60
2018-03-27T14:11:39.608Z,60
2018-03-27T14:12:49.726Z,55
2018-03-27T14:13:59.524Z,55
2018-03-27T14:15:09.868Z,50
2018-03-27T14:16:19.966Z,45
2018-03-27T14:17:30.301Z,45
2018-03-27T14:18:40.186Z,45
2018-03-27T14:19:50.310Z,40
2018-03-27T14:21:00.401Z,40
2018-03-27T14:22:10.221Z,35
2018-03-27T14:23:19.802Z,35
2018-03-27T14:24:29.134Z,30
2018-03-27T14:25:38.953Z,30
2018-03-27T14:26:49.040Z,30
2018-03-27T14:27:59.117Z,25
2018-03-27T14:29:08.648Z,25
2018-03-27T14:30:18.259Z,25
2018-03-27T14:31:28.341Z,30
2018-03-27T14:32:38.440Z,30
2018-03-27T14:33:48.256Z,30
2018-03-27T14:34:58.357Z,25
2018-03-27T14:36:08.244Z,20
2018-03-27T14:37:18.136Z,20
2018-03-27T14:38:28.082Z,20
2018-03-27T14:39:38.196Z,20
2018-03-27T14:40:48.018Z,15
2018-03-27T14:41:58.164Z,20
2018-03-27T14:43:08.243Z,20
2018-03-27T14:44:18.069Z,20
2018-03-27T14:45:28.271Z,15
2018-03-27T14:46:38.351Z,15
2018-03-27T14:47:48.456Z,15
2018-03-27T14:48:58.287Z,15
2018-03-27T14:50:08.109Z,10
2018-03-27T14:51:18.214Z,10
2018-03-27T14:52:28.099Z,10
2018-03-27T14:53:38.421Z,10
2018-03-27T14:54:48.722Z,10
2018-03-27T14:55:59.021Z,10
2018-03-27T14:57:08.856Z,10
2018-03-27T14:58:18.669Z,10
2018-03-27T14:59:29.138Z,10
2018-03-27T15:00:38.726Z,5
2018-03-27T15:01:48.005Z,5
2018-03-27T15:02:58.284Z,5
2018-03-27T15:04:08.615Z,5
2018-03-27T15:05:18.701Z,5
2018-03-27T15:06:28.792Z,5
2018-03-27T15:07:38.892Z,5
2018-03-27T15:08:48.986Z,10
2018-03-27T15:09:59.143Z,10
2018-03-27T15:11:09.209Z,10
2018-03-27T15:12:19.301Z,10
2018-03-27T15:13:29.594Z,10
2018-03-27T15:14:39.617Z,10
2018-03-27T15:15:49.961Z,15
2018-03-27T15:16:59.517Z,15
2018-03-27T15:18:09.101Z,15
2018-03-27T15:19:19.064Z,20
2018-03-27T15:20:29.369Z,20
2018-03-27T15:21:39.963Z,25
2018-03-27T15:22:50.213Z,35
2018-03-27T15:24:00.034Z,40
2018-03-27T15:25:10.273Z,40
2018-03-27T15:26:20.883Z,45
2018-03-27T15:27:30.446Z,55
2018-03-27T15:28:40.981Z,60
2018-03-27T15:29:51.320Z,65
2018-03-27T15:31:01.426Z,70
2018-03-27T15:32:11.730Z,70
2018-03-27T15:33:21.546Z,75
2018-03-27T15:34:31.871Z,80
2018-03-27T15:35:41.353Z,85
2018-03-27T15:36:51.630Z,90
2018-03-27T15:38:01.958Z,95
2018-03-27T15:39:12.074Z,95
2018-03-27T15:40:22.581Z,95
2018-03-27T15:41:32.926Z,90
2018-03-27T15:42:43.249Z,85
2018-03-27T15:43:53.341Z,80
2018-03-27T15:45:03.454Z,75
2018-03-27T15:46:13.625Z,70
2018-03-27T15:47:23.767Z,70
2018-03-27T15:48:34.252Z,65
2018-03-27T15:49:44.390Z,60
2018-03-27T15:50:54.417Z,60
2018-03-27T15:52:04.597Z,55
2018-03-27T15:53:14.440Z,50
2018-03-27T15:54:24.414Z,50
2018-03-27T15:55:34.274Z,45
2018-03-27T15:56:44.050Z,40
2018-03-27T15:57:54.107Z,40
2018-03-27T15:59:03.688Z,40
2018-03-27T16:00:14.204Z,40
2018-03-27T16:01:24.047Z,40
2018-03-27T16:02:34.135Z,45
2018-03-27T16:03:44.506Z,45
2018-03-27T16:04:54.639Z,40
2018-03-27T16:06:04.952Z,40
2018-03-27T16:07:15.427Z,35
2018-03-27T16:08:25.543Z,35
2018-03-27T16:09:35.700Z,35
2018-03-27T16:10:45.819Z,35
2018-03-27T16:11:55.943Z,30
2018-03-27T16:13:05.770Z,25
2018-03-27T16:14:15.592Z,25
2018-03-27T16:15:25.209Z,25
2018-03-27T16:16:35.053Z,20
2018-03-27T16:17:44.927Z,20
2018-03-27T16:18:55.015Z,20
2018-03-27T16:20:04.590Z,20
2018-03-27T16:21:14.752Z,15
2018-03-27T16:22:24.570Z,15
2018-03-27T16:23:34.665Z,15
2018-03-27T16:24:44.770Z,15
2018-03-27T16:25:54.333Z,15
2018-03-27T16:27:04.496Z,15
2018-03-27T16:28:14.332Z,15
2018-03-27T16:29:24.403Z,15
2018-03-27T16:30:33.965Z,10
2018-03-27T16:31:43.830Z,10
2018-03-27T16:32:53.709Z,10
2018-03-27T16:34:03.540Z,10
2018-03-27T16:35:13.375Z,10
2018-03-27T16:36:23.443Z,10
2018-03-27T16:37:32.737Z,10
2018-03-27T16:38:42.613Z,5
2018-03-27T16:39:52.236Z,5
2018-03-27T16:41:02.336Z,5
2018-03-27T16:42:12.152Z,5
2018-03-27T16:43:22.234Z,5
2018-03-27T16:44:31.811Z,5
2018-03-27T16:45:41.660Z,5
2018-03-27T16:46:51.258Z,5
2018-03-27T16:48:01.084Z,5
2018-03-27T16:49:10.892Z,5
2018-03-27T16:50:20.720Z,5
2018-03-27T16:51:30.775Z,5
2018-03-27T16:52:41.116Z,5
2018-03-27T16:53:51.218Z,5
2018-03-27T16:55:01.040Z,5
2018-03-27T16:56:11.354Z,5
2018-03-27T16:57:21.430Z,5
2018-03-27T16:58:31.009Z,5
2018-03-27T16:59:40.829Z,5
2018-03-27T17:00:50.640Z,5
2018-03-27T17:02:00.214Z,5
2018-03-27T17:03:10.324Z,5
2018-03-27T17:04:19.891Z,5
2018-03-27T17:05:29.476Z,5
2018-03-27T17:06:39.289Z,5
2018-03-27T17:07:49.110Z,0
2018-03-27T17:08:58.935Z,0
2018-03-27T17:10:09.098Z,0
2018-03-27T17:11:18.938Z,0
2018-03-27T17:12:29.040Z,0
2018-03-27T17:13:39.115Z,0